Terminal Aerodrome Forecast
Issued by NWS

Home | Current Version | Previous Version | Text Only | Print | Product List | Glossary On
Versions: 1 2 3 4 5 6 7 8 9 10 11 12 13 14 15 16 17 18 19 20 21 22 23 24 25 26 27
000
FTUS41 KILN 280533
TAFLCK
TAF
KLCK 280533Z 2806/2906 00000KT P6SM BKN130
     FM280900 VRB03KT 5SM BR SCT025
     FM281300 02003KT P6SM SCT120 BKN250
     FM281600 02006KT P6SM SCT040 BKN250
     FM290000 03003KT P6SM SCT130=

USA.gov is the U.S. government's official web portal to all federal, state and local government web resources and services.